createdAt,value
2023-03-20T00:00:36.152Z,59.68
2023-03-20T00:03:03.454Z,60.37
2023-03-20T00:05:31.319Z,60.27
2023-03-20T00:07:58.882Z,60.60
2023-03-20T00:10:37.957Z,60.35
2023-03-20T00:13:06.820Z,60.06
2023-03-20T00:15:38.131Z,60.25
2023-03-20T00:18:14.905Z,59.88
2023-03-20T00:20:41.959Z,59.99
2023-03-20T00:23:08.801Z,60.16
2023-03-20T00:25:36.656Z,60.22
2023-03-20T00:28:11.308Z,60.42
2023-03-20T00:30:38.087Z,60.26
2023-03-20T00:33:08.817Z,60.57
2023-03-20T00:35:36.001Z,60.71
2023-03-20T00:38:02.948Z,60.65
2023-03-20T00:40:32.001Z,60.83
2023-03-20T00:43:02.056Z,61.68
2023-03-20T00:45:31.923Z,61.64
2023-03-20T00:47:59.686Z,61.41
2023-03-20T00:50:32.327Z,62.34
2023-03-20T00:52:59.505Z,62.62
2023-03-20T00:55:29.365Z,62.01
2023-03-20T00:58:01.171Z,61.79
2023-03-20T01:00:39.490Z,62.02
2023-03-20T01:03:17.082Z,62.04
2023-03-20T01:05:44.989Z,61.87
2023-03-20T01:08:20.061Z,63.08
2023-03-20T01:10:52.618Z,62.61
2023-03-20T01:13:26.538Z,62.61
2023-03-20T01:15:55.376Z,62.37
2023-03-20T01:18:23.537Z,62.16
2023-03-20T01:20:53.049Z,62.47
2023-03-20T01:23:22.861Z,62.82
2023-03-20T01:25:50.406Z,63.48
2023-03-20T01:28:20.778Z,63.60
2023-03-20T01:30:48.100Z,64.23
2023-03-20T01:33:17.068Z,64.01
2023-03-20T01:35:46.950Z,64.02
2023-03-20T01:38:23.343Z,63.98
2023-03-20T01:41:03.525Z,64.56
2023-03-20T01:43:33.411Z,64.18
2023-03-20T01:46:09.746Z,64.43
2023-03-20T01:49:20.185Z,64.25
2023-03-20T01:51:49.583Z,64.62
2023-03-20T01:54:33.442Z,65.40
2023-03-20T01:57:14.518Z,66.06
2023-03-20T01:59:51.284Z,65.69
2023-03-20T02:02:26.426Z,65.95
2023-03-20T02:04:58.303Z,66.00
2023-03-20T02:07:25.769Z,66.27
2023-03-20T02:10:09.842Z,66.45
2023-03-20T02:12:59.064Z,67.57
2023-03-20T02:15:36.356Z,67.34
2023-03-20T02:18:11.651Z,67.28
2023-03-20T02:20:59.513Z,67.49
2023-03-20T02:23:45.674Z,67.84
2023-03-20T02:26:19.276Z,67.74
2023-03-20T02:28:50.457Z,68.09
2023-03-20T02:31:20.930Z,67.94
2023-03-20T02:33:54.001Z,67.81
2023-03-20T02:36:54.217Z,67.74
2023-03-20T02:39:24.582Z,68.26
2023-03-20T02:42:20.616Z,68.05
2023-03-20T02:45:14.822Z,67.73
2023-03-20T02:47:56.192Z,68.71
2023-03-20T02:50:41.359Z,68.60
2023-03-20T02:53:17.192Z,68.17
2023-03-20T02:55:52.515Z,68.46
2023-03-20T02:58:37.284Z,68.06
2023-03-20T03:01:13.439Z,68.07
2023-03-20T03:03:57.312Z,67.91
2023-03-20T03:06:25.015Z,67.62
2023-03-20T03:09:17.761Z,68.71
2023-03-20T03:12:06.905Z,69.00
2023-03-20T03:14:50.645Z,68.90
2023-03-20T03:17:21.500Z,68.43
2023-03-20T03:19:59.166Z,68.52
2023-03-20T03:22:26.778Z,68.19
2023-03-20T03:24:55.040Z,68.23
2023-03-20T03:27:31.832Z,68.07
2023-03-20T03:30:05.764Z,68.70
2023-03-20T03:32:51.338Z,68.62
2023-03-20T03:35:21.789Z,68.55
2023-03-20T03:38:03.893Z,68.44
2023-03-20T03:40:41.610Z,69.01
2023-03-20T03:43:47.145Z,69.22
2023-03-20T03:46:23.909Z,69.36
2023-03-20T03:48:57.457Z,69.13
2023-03-20T03:51:29.101Z,69.20
2023-03-20T03:54:18.641Z,69.07
2023-03-20T03:56:57.464Z,69.24
2023-03-20T03:59:30.422Z,69.49
2023-03-20T04:01:59.619Z,69.45
2023-03-20T04:04:28.971Z,69.33
2023-03-20T04:06:55.892Z,69.27
2023-03-20T04:09:22.940Z,69.13
2023-03-20T04:11:53.672Z,68.91
2023-03-20T04:14:20.727Z,68.77
2023-03-20T04:16:47.763Z,68.49
2023-03-20T04:19:14.577Z,69.31
2023-03-20T04:21:45.766Z,69.61
2023-03-20T04:24:12.597Z,69.65
2023-03-20T04:26:40.511Z,70.23
2023-03-20T04:29:07.483Z,69.91
2023-03-20T04:31:46.812Z,70.00
2023-03-20T04:34:36.904Z,70.10
2023-03-20T04:37:10.263Z,70.50
2023-03-20T04:39:48.838Z,70.35
2023-03-20T04:42:16.544Z,70.73
2023-03-20T04:44:43.428Z,71.01
2023-03-20T04:47:10.343Z,70.87
2023-03-20T04:49:41.058Z,71.23
2023-03-20T04:52:08.368Z,71.51
2023-03-20T04:54:43.748Z,71.12
2023-03-20T04:57:11.937Z,71.56
2023-03-20T04:59:39.307Z,70.85
2023-03-20T05:02:06.587Z,70.24
2023-03-20T05:04:33.396Z,70.23
2023-03-20T05:07:00.837Z,69.90
2023-03-20T05:09:36.056Z,69.08
2023-03-20T05:12:05.044Z,68.87
2023-03-20T05:14:50.562Z,68.48
2023-03-20T05:17:40.597Z,67.97
2023-03-20T05:20:30.388Z,67.69
2023-03-20T05:23:17.400Z,69.32
2023-03-20T05:26:07.691Z,67.39
2023-03-20T05:28:49.925Z,64.51
2023-03-20T05:31:37.053Z,62.11
2023-03-20T05:34:39.641Z,59.13
2023-03-20T05:37:16.151Z,56.33
2023-03-20T05:40:07.137Z,54.41
2023-03-20T05:42:46.010Z,51.06
2023-03-20T05:45:31.165Z,48.83
2023-03-20T05:48:21.220Z,47.73
2023-03-20T05:51:06.640Z,45.73
2023-03-20T05:53:47.961Z,44.27
2023-03-20T05:56:23.998Z,41.88
2023-03-20T05:59:15.013Z,40.96
2023-03-20T06:01:58.999Z,39.87
2023-03-20T06:04:30.789Z,38.20
2023-03-20T06:07:32.897Z,37.48
2023-03-20T06:10:03.902Z,36.08
2023-03-20T06:12:31.383Z,35.34
2023-03-20T06:14:58.440Z,33.73
2023-03-20T06:17:26.108Z,33.51
2023-03-20T06:19:59.050Z,32.59
2023-03-20T06:22:25.826Z,31.32
2023-03-20T06:24:54.346Z,30.66
2023-03-20T06:27:24.099Z,30.14
2023-03-20T06:29:51.069Z,29.89
2023-03-20T06:32:24.476Z,28.74
2023-03-20T06:34:53.371Z,29.22
2023-03-20T06:37:20.743Z,28.78
2023-03-20T06:39:47.584Z,28.13
2023-03-20T06:42:16.247Z,28.57
2023-03-20T06:44:44.089Z,28.22
2023-03-20T06:47:16.029Z,27.83
2023-03-20T06:49:45.940Z,28.49
2023-03-20T06:52:18.482Z,28.71
2023-03-20T06:54:52.216Z,28.54
2023-03-20T06:57:19.455Z,28.53
2023-03-20T06:59:46.368Z,28.65
2023-03-20T07:02:13.258Z,28.49
2023-03-20T07:04:41.221Z,28.73
2023-03-20T07:07:08.621Z,28.57
2023-03-20T07:09:35.810Z,28.13
2023-03-20T07:12:04.758Z,28.10
2023-03-20T07:14:33.249Z,27.71
2023-03-20T07:17:10.881Z,27.12
2023-03-20T07:19:39.058Z,27.09
2023-03-20T07:22:08.869Z,27.87
2023-03-20T07:24:40.056Z,29.49
2023-03-20T07:27:06.930Z,30.39
2023-03-20T07:29:34.773Z,31.67
2023-03-20T07:32:04.030Z,33.60
2023-03-20T07:34:34.955Z,34.53
2023-03-20T07:37:01.873Z,34.85
2023-03-20T07:39:31.050Z,35.57
2023-03-20T07:42:17.784Z,36.32
2023-03-20T07:44:51.910Z,36.97
2023-03-20T07:47:18.829Z,37.02
2023-03-20T07:49:46.859Z,37.32
2023-03-20T07:52:15.043Z,37.79
2023-03-20T07:54:41.818Z,38.17
2023-03-20T07:57:08.735Z,38.17
2023-03-20T07:59:35.664Z,38.14
2023-03-20T08:02:02.498Z,38.30
2023-03-20T08:04:29.280Z,38.20
2023-03-20T08:06:56.337Z,37.90
2023-03-20T08:09:23.247Z,37.85
2023-03-20T08:11:50.377Z,37.33
2023-03-20T08:14:17.394Z,36.96
2023-03-20T08:16:44.136Z,36.18
2023-03-20T08:19:11.198Z,36.77
2023-03-20T08:21:37.936Z,36.21
2023-03-20T08:24:04.997Z,36.12
2023-03-20T08:26:31.901Z,35.60
2023-03-20T08:28:59.896Z,35.00
2023-03-20T08:31:26.703Z,35.21
2023-03-20T08:33:53.525Z,35.55
2023-03-20T08:36:21.309Z,34.59
2023-03-20T08:38:49.581Z,34.25
2023-03-20T08:41:17.793Z,33.70
2023-03-20T08:43:44.659Z,34.38
2023-03-20T08:46:11.667Z,33.96
2023-03-20T08:48:38.479Z,33.45
2023-03-20T08:51:06.252Z,33.23
2023-03-20T08:53:33.132Z,33.45
2023-03-20T08:55:59.932Z,33.19
2023-03-20T08:58:27.400Z,33.41
2023-03-20T09:00:54.778Z,33.18
2023-03-20T09:03:21.792Z,32.48
2023-03-20T09:05:51.420Z,32.02
2023-03-20T09:08:18.661Z,31.77
2023-03-20T09:10:47.891Z,31.04
2023-03-20T09:13:26.618Z,31.13
2023-03-20T09:15:55.056Z,31.00
2023-03-20T09:18:22.275Z,31.72
2023-03-20T09:20:49.660Z,30.96
2023-03-20T09:23:16.919Z,30.67
2023-03-20T09:25:46.897Z,29.64
2023-03-20T09:28:13.964Z,29.19
2023-03-20T09:30:43.388Z,29.43
2023-03-20T09:33:10.360Z,27.71
2023-03-20T09:35:37.663Z,27.62
2023-03-20T09:38:04.497Z,28.15
2023-03-20T09:40:57.169Z,27.62
2023-03-20T09:43:33.701Z,28.11
2023-03-20T09:46:49.640Z,27.55
2023-03-20T09:49:23.339Z,27.78
2023-03-20T09:51:59.813Z,27.36
2023-03-20T09:54:52.768Z,27.43
2023-03-20T09:57:40.711Z,27.33
2023-03-20T10:00:22.366Z,26.23
2023-03-20T10:02:54.292Z,25.33
2023-03-20T10:05:25.668Z,25.56
2023-03-20T10:07:55.998Z,25.70
2023-03-20T10:10:49.163Z,25.01
2023-03-20T10:13:37.949Z,25.20
2023-03-20T10:16:18.005Z,25.12
2023-03-20T10:18:56.377Z,23.88
2023-03-20T10:21:32.644Z,22.83
2023-03-20T10:24:04.219Z,21.95
2023-03-20T10:26:35.359Z,22.02
2023-03-20T10:29:13.678Z,22.18
2023-03-20T10:31:57.495Z,20.26
2023-03-20T10:34:27.037Z,20.22
2023-03-20T10:37:29.016Z,21.28
2023-03-20T10:40:24.017Z,20.36
2023-03-20T10:42:53.963Z,19.89
2023-03-20T10:45:41.808Z,18.74
2023-03-20T10:48:32.092Z,17.28
2023-03-20T10:51:02.391Z,18.49
2023-03-20T10:53:44.419Z,18.67
2023-03-20T10:56:29.162Z,19.43
2023-03-20T10:59:04.647Z,18.41
2023-03-20T11:01:33.325Z,17.53
2023-03-20T11:04:01.977Z,17.87
2023-03-20T11:06:47.671Z,18.48
2023-03-20T11:09:23.460Z,18.22
2023-03-20T11:11:56.474Z,19.01
2023-03-20T11:14:32.999Z,17.49
2023-03-20T11:17:03.975Z,18.62
2023-03-20T11:19:39.330Z,17.51
2023-03-20T11:22:25.588Z,18.25
2023-03-20T11:25:07.433Z,17.78
2023-03-20T11:27:35.349Z,17.32
2023-03-20T11:30:05.940Z,17.25
2023-03-20T11:32:36.225Z,16.83
2023-03-20T11:35:24.191Z,17.52
2023-03-20T11:37:53.753Z,17.61
2023-03-20T11:40:31.262Z,17.12
2023-03-20T11:43:18.826Z,17.54
2023-03-20T11:45:49.113Z,17.14
2023-03-20T11:48:25.682Z,17.84
2023-03-20T11:51:02.728Z,16.56
2023-03-20T11:53:35.867Z,17.90
2023-03-20T11:56:24.834Z,16.45
2023-03-20T11:59:03.536Z,16.50
2023-03-20T12:01:44.572Z,15.80
2023-03-20T12:04:13.588Z,15.80
2023-03-20T12:06:48.832Z,16.28
2023-03-20T12:09:41.524Z,15.45
2023-03-20T12:12:19.549Z,15.69
2023-03-20T12:15:05.718Z,14.74
2023-03-20T12:17:38.281Z,15.37
2023-03-20T12:20:26.261Z,15.77
2023-03-20T12:23:09.462Z,15.27
2023-03-20T12:25:59.729Z,15.25
2023-03-20T12:28:36.308Z,14.15
2023-03-20T12:31:24.891Z,15.01
2023-03-20T12:34:02.725Z,14.62
2023-03-20T12:36:48.589Z,15.29
2023-03-20T12:39:18.702Z,15.66
2023-03-20T12:42:00.892Z,14.57
2023-03-20T12:44:41.614Z,15.03
2023-03-20T12:47:23.832Z,14.65
2023-03-20T12:49:58.182Z,15.06
2023-03-20T12:52:45.902Z,14.10
2023-03-20T12:55:40.462Z,13.93
2023-03-20T12:58:22.312Z,13.94
2023-03-20T13:01:06.257Z,14.43
2023-03-20T13:03:45.005Z,13.75
2023-03-20T13:06:21.539Z,13.38
2023-03-20T13:09:07.070Z,13.65
2023-03-20T13:11:49.308Z,14.26
2023-03-20T13:14:27.845Z,14.11
2023-03-20T13:16:58.336Z,14.16
2023-03-20T13:20:13.309Z,14.26
2023-03-20T13:23:16.519Z,13.55
2023-03-20T13:26:01.666Z,13.15
2023-03-20T13:29:00.664Z,13.32
2023-03-20T13:31:47.972Z,13.12
2023-03-20T13:34:59.382Z,12.23
2023-03-20T13:37:36.089Z,12.59
2023-03-20T13:40:19.123Z,12.40
2023-03-20T13:43:00.902Z,12.81
2023-03-20T13:45:39.548Z,12.56
2023-03-20T13:48:27.443Z,12.32
2023-03-20T13:51:08.584Z,12.55
2023-03-20T13:53:56.769Z,14.26
2023-03-20T13:57:02.794Z,16.22
2023-03-20T13:59:47.609Z,15.51
2023-03-20T14:02:17.947Z,17.40
2023-03-20T14:04:45.896Z,18.70
2023-03-20T14:07:39.004Z,18.66
2023-03-20T14:10:20.830Z,18.35
2023-03-20T14:13:01.499Z,18.91
2023-03-20T14:15:33.139Z,18.38
2023-03-20T14:18:08.051Z,17.94
2023-03-20T14:20:39.469Z,17.42
2023-03-20T14:23:07.539Z,17.51
2023-03-20T14:25:43.707Z,17.87
2023-03-20T14:28:13.279Z,18.51
2023-03-20T14:30:46.351Z,18.86
2023-03-20T14:33:13.212Z,19.31
2023-03-20T14:35:46.107Z,19.96
2023-03-20T14:38:21.507Z,19.60
2023-03-20T14:41:10.666Z,20.23
2023-03-20T14:44:31.810Z,20.30
2023-03-20T14:47:31.767Z,20.41
2023-03-20T14:50:37.608Z,20.64
2023-03-20T14:53:20.365Z,20.63
2023-03-20T14:56:02.792Z,21.13
2023-03-20T14:58:49.786Z,21.31
2023-03-20T15:01:22.466Z,21.64
2023-03-20T15:03:52.892Z,21.85
2023-03-20T15:06:22.442Z,22.03
2023-03-20T15:08:55.652Z,22.38
2023-03-20T15:11:23.836Z,22.43
2023-03-20T15:13:52.453Z,22.27
2023-03-20T15:16:28.176Z,23.16
2023-03-20T15:18:55.792Z,22.79
2023-03-20T15:21:31.199Z,22.51
2023-03-20T15:23:58.844Z,22.34
2023-03-20T15:26:27.743Z,22.23
2023-03-20T15:29:08.063Z,23.01
2023-03-20T15:31:38.262Z,23.34
2023-03-20T15:34:26.929Z,23.46
2023-03-20T15:36:59.575Z,23.91
2023-03-20T15:39:41.103Z,23.69
2023-03-20T15:42:14.335Z,23.46
2023-03-20T15:44:44.808Z,24.20
2023-03-20T15:47:17.422Z,24.01
2023-03-20T15:49:51.984Z,24.77
2023-03-20T15:52:32.964Z,24.56
2023-03-20T15:55:05.478Z,25.08
2023-03-20T15:57:38.592Z,25.32
2023-03-20T16:00:10.163Z,25.50
2023-03-20T16:02:37.906Z,25.82
2023-03-20T16:05:05.826Z,26.07
2023-03-20T16:07:33.846Z,26.30
2023-03-20T16:10:00.754Z,26.37
2023-03-20T16:12:27.759Z,26.78
2023-03-20T16:14:55.975Z,26.94
2023-03-20T16:17:25.155Z,27.27
2023-03-20T16:19:52.165Z,27.78
2023-03-20T16:22:28.268Z,28.10
2023-03-20T16:24:59.175Z,28.02
2023-03-20T16:27:33.038Z,28.55
2023-03-20T16:30:03.649Z,28.33
2023-03-20T16:32:40.389Z,28.63
2023-03-20T16:35:19.969Z,29.10
2023-03-20T16:37:52.223Z,29.29
2023-03-20T16:40:33.840Z,29.59
2023-03-20T16:43:16.878Z,30.01
2023-03-20T16:45:53.366Z,30.17
2023-03-20T16:48:23.404Z,30.52
2023-03-20T16:51:04.090Z,30.59
2023-03-20T16:53:37.982Z,31.09
2023-03-20T16:56:10.692Z,31.22
2023-03-20T16:58:41.365Z,31.12
2023-03-20T17:01:16.211Z,31.42
2023-03-20T17:03:48.264Z,31.36
2023-03-20T17:06:21.713Z,31.76
2023-03-20T17:09:10.338Z,31.82
2023-03-20T17:11:39.265Z,32.80
2023-03-20T17:14:06.261Z,32.86
2023-03-20T17:16:34.257Z,33.67
2023-03-20T17:19:03.028Z,33.85
2023-03-20T17:21:30.172Z,34.30
2023-03-20T17:23:57.584Z,34.68
2023-03-20T17:26:24.909Z,34.76
2023-03-20T17:28:51.810Z,34.89
2023-03-20T17:31:19.347Z,35.83
2023-03-20T17:33:46.953Z,38.47
2023-03-20T17:36:22.017Z,38.98
2023-03-20T17:38:49.245Z,39.29
2023-03-20T17:41:18.109Z,40.03
2023-03-20T17:43:45.548Z,40.05
2023-03-20T17:46:19.262Z,40.66
2023-03-20T17:48:47.467Z,41.36
2023-03-20T17:51:14.624Z,41.62
2023-03-20T17:53:41.424Z,41.06
2023-03-20T17:56:13.588Z,40.94
2023-03-20T17:58:44.617Z,43.51
2023-03-20T18:01:12.567Z,43.00
2023-03-20T18:03:39.924Z,42.07
2023-03-20T18:06:07.591Z,42.77
2023-03-20T18:08:34.413Z,43.48
2023-03-20T18:11:01.286Z,43.84
2023-03-20T18:13:29.339Z,44.08
2023-03-20T18:15:58.303Z,44.61
2023-03-20T18:18:25.969Z,44.28
2023-03-20T18:20:54.949Z,43.99
2023-03-20T18:23:23.096Z,44.52
2023-03-20T18:25:50.225Z,44.65
2023-03-20T18:28:23.353Z,45.16
2023-03-20T18:30:50.734Z,45.18
2023-03-20T18:33:17.940Z,45.65
2023-03-20T18:35:45.268Z,45.87
2023-03-20T18:38:16.144Z,45.86
2023-03-20T18:40:43.840Z,46.54
2023-03-20T18:43:11.154Z,46.69
2023-03-20T18:45:39.659Z,46.44
2023-03-20T18:48:07.742Z,47.11
2023-03-20T18:50:38.012Z,47.25
2023-03-20T18:53:06.381Z,47.42
2023-03-20T18:55:34.274Z,48.13
2023-03-20T18:58:03.896Z,47.86
2023-03-20T19:00:38.401Z,48.22
2023-03-20T19:03:05.851Z,48.44
2023-03-20T19:05:33.061Z,48.68
2023-03-20T19:08:01.529Z,48.47
2023-03-20T19:10:28.479Z,48.00
2023-03-20T19:12:56.237Z,47.98
2023-03-20T19:15:26.564Z,49.35
2023-03-20T19:17:54.681Z,49.34
2023-03-20T19:20:36.127Z,49.34
2023-03-20T19:23:05.226Z,50.17
2023-03-20T19:25:33.029Z,49.68
2023-03-20T19:28:00.700Z,49.90
2023-03-20T19:30:39.380Z,49.98
2023-03-20T19:33:07.806Z,50.01
2023-03-20T19:38:22.668Z,50.66
2023-03-20T19:40:54.236Z,49.63
2023-03-20T19:43:22.149Z,49.89
2023-03-20T19:45:51.945Z,49.67
2023-03-20T19:48:22.422Z,49.58
2023-03-20T19:50:51.143Z,49.44
2023-03-20T19:53:21.549Z,49.25
2023-03-20T19:55:49.149Z,49.49
2023-03-20T19:58:15.985Z,49.47
2023-03-20T20:00:57.325Z,49.18
2023-03-20T20:03:26.719Z,49.33
2023-03-20T20:05:54.214Z,49.17
2023-03-20T20:08:44.254Z,49.79
2023-03-20T20:11:13.152Z,50.21
2023-03-20T20:14:03.649Z,50.06
2023-03-20T20:16:29.735Z,50.51
2023-03-20T20:18:56.570Z,50.28
2023-03-20T20:24:11.645Z,50.49
2023-03-20T20:26:47.931Z,51.46
2023-03-20T20:29:21.328Z,51.07
2023-03-20T20:31:48.345Z,51.09
2023-03-20T20:39:50.232Z,51.46
2023-03-20T20:42:17.893Z,51.80
2023-03-20T20:44:45.342Z,52.30
2023-03-20T20:47:13.855Z,51.50
2023-03-20T20:49:41.168Z,51.63
2023-03-20T20:52:09.365Z,52.10
2023-03-20T20:54:36.194Z,52.04
2023-03-20T20:57:04.395Z,52.21
2023-03-20T20:59:31.261Z,52.40
2023-03-20T21:01:58.500Z,52.31
2023-03-20T21:04:25.647Z,52.49
2023-03-20T21:07:10.602Z,52.34
2023-03-20T21:09:38.618Z,52.65
2023-03-20T21:12:06.314Z,52.46
2023-03-20T21:14:33.689Z,52.69
2023-03-20T21:17:01.505Z,52.80
2023-03-20T21:19:40.174Z,52.71
2023-03-20T21:22:09.514Z,53.30
2023-03-20T21:24:37.107Z,53.63
2023-03-20T21:27:06.839Z,53.26
2023-03-20T21:29:34.627Z,53.82
2023-03-20T21:32:01.447Z,53.91
2023-03-20T21:34:31.982Z,54.20
2023-03-20T21:37:02.953Z,54.50
2023-03-20T21:39:50.338Z,54.42
2023-03-20T21:42:17.774Z,54.37
2023-03-20T21:45:35.689Z,54.83
2023-03-20T21:56:41.906Z,55.05
2023-03-20T21:59:25.289Z,54.87
2023-03-20T22:02:00.296Z,54.87
2023-03-20T22:05:09.788Z,55.43
2023-03-20T22:07:38.357Z,55.59
2023-03-20T22:10:39.375Z,55.52
2023-03-20T22:16:17.136Z,55.59
2023-03-20T22:27:38.502Z,57.62
2023-03-20T22:30:01.678Z,57.26
2023-03-20T22:32:48.581Z,56.59
2023-03-20T22:35:40.892Z,57.36
2023-03-20T22:41:36.179Z,57.93
2023-03-20T22:44:13.740Z,58.70
2023-03-20T22:46:22.703Z,59.00
2023-03-20T22:48:49.450Z,59.40
2023-03-20T22:51:18.219Z,60.22
2023-03-20T22:53:45.271Z,60.19
2023-03-20T22:56:12.170Z,60.76
2023-03-20T22:58:39.002Z,61.46
2023-03-20T23:01:07.741Z,61.61
2023-03-20T23:03:41.337Z,61.85
2023-03-20T23:06:12.456Z,62.33
2023-03-20T23:08:50.340Z,62.60
2023-03-20T23:11:20.054Z,62.76
2023-03-20T23:13:46.903Z,63.09
2023-03-20T23:16:13.793Z,63.66
2023-03-20T23:18:41.157Z,63.37
2023-03-20T23:21:08.947Z,62.84
2023-03-20T23:23:35.950Z,63.50
2023-03-20T23:26:15.656Z,63.22
2023-03-20T23:28:45.152Z,63.66
2023-03-20T23:31:24.039Z,64.14
2023-03-20T23:33:54.347Z,63.76
2023-03-20T23:36:35.534Z,64.02
2023-03-20T23:39:05.835Z,64.26
2023-03-20T23:42:01.695Z,64.50
2023-03-20T23:44:19.715Z,65.15
2023-03-20T23:46:48.233Z,65.59
2023-03-20T23:49:16.474Z,64.94
2023-03-20T23:51:43.616Z,65.06
2023-03-20T23:54:11.125Z,65.40
2023-03-20T23:56:38.082Z,65.72
2023-03-20T23:59:14.980Z,65.89
